Time;durP1;ratioP1;P1;durP2;ratioP2;P2;SDS_P1;SDS_P2;PMS_P1;PMS_P2;Temp;Humidity;BMP_temperature;BMP_pressure;BME280_temperature;BME280_humidity;BME280_pressure;Samples;Min_cycle;Max_cycle;Signal;HPM_P1;HPM_P2
2022/01/21 00:01:15;;;;;;;;;;;-0.20;99.90;;;;;;5071519;28;20297;-73
2022/01/21 00:03:40;;;;;;;;;;;-0.30;99.90;;;;;;5072041;28;20391;-72
2022/01/21 00:06:06;;;;;;;;;;;-0.40;99.90;;;;;;5072094;28;19908;-72
2022/01/21 00:08:33;;;;;;;;;;;-0.40;99.90;;;;;;5071304;28;19935;-73
2022/01/21 00:10:58;;;;;;;;;;;-0.40;99.90;;;;;;5071383;28;19919;-72
2022/01/21 00:13:33;;;;;;;;;;;-0.50;99.90;;;;;;5070847;28;19909;-73
2022/01/21 00:15:59;;;;;;;;;;;-0.60;99.90;;;;;;5071287;28;20367;-73
2022/01/21 00:18:25;;;;;;;;;;;-0.70;99.90;;;;;;5071244;28;19950;-73
2022/01/21 00:31:47;;;;;;;;;;;-1.10;99.90;;;;;;5090531;28;19918;-72
2022/01/21 00:34:13;;;;;;;;;;;-0.90;99.90;;;;;;5089886;28;19998;-72
2022/01/21 00:36:38;;;;;;;;;;;-0.70;99.90;;;;;;5090374;28;19915;-73
2022/01/21 00:39:04;;;;;;;;;;;-0.60;99.90;;;;;;5090434;28;19908;-73
2022/01/21 00:41:34;;;;;;;;;;;-0.70;99.90;;;;;;5090259;28;19912;-72
2022/01/21 00:44:00;;;;;;;;;;;-0.50;99.90;;;;;;5089853;28;20506;-72
2022/01/21 00:46:25;;;;;;;;;;;-0.60;99.90;;;;;;5090572;28;19972;-73
2022/01/21 00:48:51;;;;;;;;;;;-0.50;99.90;;;;;;5093918;28;19958;-73
2022/01/21 00:51:16;;;;;;;;;;;-0.50;99.90;;;;;;5086376;28;20515;-72
2022/01/21 00:53:42;;;;;;;;;;;-0.60;99.90;;;;;;5093335;28;19951;-72
2022/01/21 00:56:07;;;;;;;;;;;-0.60;99.90;;;;;;5078623;28;19948;-73
2022/01/21 00:58:32;;;;;;;;;;;-0.50;99.90;;;;;;5074373;28;19908;-73
2022/01/21 01:00:58;;;;;;;;;;;-0.50;99.90;;;;;;5074171;28;19908;-73
2022/01/21 01:03:23;;;;;;;;;;;-0.50;99.90;;;;;;5073650;28;19915;-73
2022/01/21 01:05:52;;;;;;;;;;;-0.60;99.90;;;;;;5074061;28;20408;-73
2022/01/21 01:08:18;;;;;;;;;;;-0.60;99.90;;;;;;5074247;28;20456;-73
2022/01/21 01:21:28;;;;;;;;;;;-0.60;99.90;;;;;;5088373;28;19916;-73
2022/01/21 01:29:24;;;;;;;;;;;-0.50;99.90;;;;;;5073379;28;19912;-72
2022/01/21 01:31:50;;;;;;;;;;;-0.50;99.90;;;;;;5092802;28;20330;-73
2022/01/21 01:34:15;;;;;;;;;;;-0.40;99.90;;;;;;5092515;28;19908;-73
2022/01/21 01:36:46;;;;;;;;;;;-0.50;99.90;;;;;;5092992;28;19909;-73
2022/01/21 01:39:16;;;;;;;;;;;-0.50;99.90;;;;;;5092990;28;19960;-72
2022/01/21 01:41:53;;;;;;;;;;;-0.50;99.90;;;;;;5080330;28;19916;-73
2022/01/21 01:49:47;;;;;;;;;;;-0.50;99.90;;;;;;5073270;28;19931;-73
2022/01/21 01:52:14;;;;;;;;;;;-0.50;99.90;;;;;;5073240;28;20500;-72
2022/01/21 01:54:41;;;;;;;;;;;-0.50;99.90;;;;;;5072707;28;20427;-73
2022/01/21 01:57:07;;;;;;;;;;;-0.50;99.90;;;;;;5072891;28;19912;-73
2022/01/21 01:59:32;;;;;;;;;;;-0.50;99.90;;;;;;5073041;28;19919;-73
2022/01/21 02:02:00;;;;;;;;;;;-0.50;99.90;;;;;;5073118;28;20312;-73
2022/01/21 02:04:26;;;;;;;;;;;-0.60;99.90;;;;;;5071284;28;20107;-73
2022/01/21 02:06:51;;;;;;;;;;;-0.60;99.90;;;;;;5073131;28;20126;-72
2022/01/21 02:09:17;;;;;;;;;;;-0.50;99.90;;;;;;5072729;28;19909;-73
2022/01/21 02:11:43;;;;;;;;;;;-0.60;99.90;;;;;;5080038;28;20389;-72
2022/01/21 02:14:13;;;;;;;;;;;-0.60;99.90;;;;;;5076609;28;19963;-73
2022/01/21 02:17:08;;;;;;;;;;;-0.60;99.90;;;;;;5072555;28;19908;-72
2022/01/21 02:22:15;;;;;;;;;;;-0.70;99.90;;;;;;5092201;28;20430;-73
2022/01/21 02:24:57;;;;;;;;;;;-0.70;99.90;;;;;;5091804;28;19916;-73
2022/01/21 02:27:23;;;;;;;;;;;-0.70;99.90;;;;;;5092010;28;19916;-73
2022/01/21 02:29:52;;;;;;;;;;;-0.60;99.90;;;;;;5092010;28;19915;-72
2022/01/21 02:32:18;;;;;;;;;;;-0.70;99.90;;;;;;5091374;28;20337;-73
2022/01/21 02:34:45;;;;;;;;;;;-0.70;99.90;;;;;;5091500;28;19908;-73
2022/01/21 02:37:11;;;;;;;;;;;-0.70;99.90;;;;;;5091718;28;19908;-72
2022/01/21 02:39:37;;;;;;;;;;;-0.70;99.90;;;;;;5091634;28;19912;-72
2022/01/21 02:42:02;;;;;;;;;;;-0.90;99.90;;;;;;5076649;28;19918;-73
2022/01/21 02:44:28;;;;;;;;;;;-1.00;99.90;;;;;;5077995;28;19954;-73
2022/01/21 02:46:57;;;;;;;;;;;-1.00;99.90;;;;;;5071997;28;19909;-73
2022/01/21 02:49:23;;;;;;;;;;;-1.00;99.90;;;;;;5072139;28;20319;-72
2022/01/21 02:51:49;;;;;;;;;;;-1.10;99.90;;;;;;5071947;28;19965;-73
2022/01/21 02:54:14;;;;;;;;;;;-1.20;99.90;;;;;;5071753;28;19909;-73
2022/01/21 02:56:40;;;;;;;;;;;-1.40;99.90;;;;;;5071944;28;19961;-73
2022/01/21 02:59:07;;;;;;;;;;;-1.30;99.90;;;;;;5072025;28;19924;-73
2022/01/21 03:01:34;;;;;;;;;;;-1.20;99.90;;;;;;5071800;28;19912;-73
2022/01/21 03:04:00;;;;;;;;;;;-1.30;99.90;;;;;;5071501;28;20057;-73
2022/01/21 03:06:26;;;;;;;;;;;-1.40;99.90;;;;;;5071849;28;19908;-73
2022/01/21 03:08:53;;;;;;;;;;;-1.40;99.90;;;;;;5071469;28;19919;-72
2022/01/21 03:11:19;;;;;;;;;;;-1.30;99.90;;;;;;5078022;28;19912;-73
2022/01/21 03:13:45;;;;;;;;;;;-1.40;99.90;;;;;;5081752;28;20451;-73
2022/01/21 03:16:11;;;;;;;;;;;-1.50;99.90;;;;;;5090852;28;19908;-73
2022/01/21 03:18:36;;;;;;;;;;;-1.70;99.90;;;;;;5091130;28;19908;-73
2022/01/21 03:21:02;;;;;;;;;;;-1.80;99.90;;;;;;5091304;28;19912;-73
2022/01/21 03:23:29;;;;;;;;;;;-1.70;99.90;;;;;;5090559;28;19908;-73
2022/01/21 03:25:55;;;;;;;;;;;-1.50;99.90;;;;;;5091086;28;19908;-73
2022/01/21 03:28:20;;;;;;;;;;;-1.20;99.90;;;;;;5090907;28;19916;-72
2022/01/21 03:30:46;;;;;;;;;;;-1.10;99.90;;;;;;5090706;28;20408;-72
2022/01/21 03:33:13;;;;;;;;;;;-0.90;99.90;;;;;;5090782;28;19908;-73
2022/01/21 03:35:38;;;;;;;;;;;-0.90;99.90;;;;;;5090681;28;20419;-73
2022/01/21 03:38:04;;;;;;;;;;;-0.90;99.90;;;;;;5090960;28;19908;-73
2022/01/21 03:40:30;;;;;;;;;;;-0.90;99.90;;;;;;5084176;28;19912;-73
2022/01/21 03:42:55;;;;;;;;;;;-0.90;99.90;;;;;;5082610;28;20171;-72
2022/01/21 03:45:21;;;;;;;;;;;-0.90;99.90;;;;;;5070901;28;19915;-73
2022/01/21 03:47:46;;;;;;;;;;;-0.80;99.90;;;;;;5071413;28;19955;-72
2022/01/21 03:50:31;;;;;;;;;;;-0.70;99.90;;;;;;5090756;28;19913;-72
2022/01/21 03:52:57;;;;;;;;;;;-0.70;99.90;;;;;;5090601;28;19935;-73
2022/01/21 03:55:22;;;;;;;;;;;-0.80;99.90;;;;;;5090627;28;20356;-72
2022/01/21 03:57:48;;;;;;;;;;;-0.80;99.90;;;;;;5090771;28;19909;-73
2022/01/21 04:00:18;;;;;;;;;;;-0.70;99.90;;;;;;5090780;28;19908;-73
2022/01/21 04:02:43;;;;;;;;;;;-0.70;99.90;;;;;;5090755;28;20438;-73
2022/01/21 04:05:09;;;;;;;;;;;-0.80;99.90;;;;;;5093324;28;19909;-73
2022/01/21 04:07:35;;;;;;;;;;;-0.80;99.90;;;;;;5090689;28;19908;-73
2022/01/21 04:10:00;;;;;;;;;;;-0.70;99.90;;;;;;5087979;28;19912;-73
2022/01/21 04:12:26;;;;;;;;;;;-0.70;99.90;;;;;;5078300;28;19919;-72
2022/01/21 04:14:51;;;;;;;;;;;-0.70;99.90;;;;;;5074850;28;19924;-72
2022/01/21 04:17:18;;;;;;;;;;;-0.70;99.90;;;;;;5071784;28;19916;-74
2022/01/21 04:19:43;;;;;;;;;;;-0.70;99.90;;;;;;5072671;28;19935;-72
2022/01/21 04:22:09;;;;;;;;;;;-0.80;99.90;;;;;;5074951;28;19908;-72
2022/01/21 04:24:36;;;;;;;;;;;-0.90;99.90;;;;;;5087326;28;19908;-73
2022/01/21 04:27:02;;;;;;;;;;;-1.00;99.90;;;;;;5094201;28;19915;-73
2022/01/21 04:29:27;;;;;;;;;;;-1.00;99.90;;;;;;5092973;28;19908;-72
2022/01/21 04:31:53;;;;;;;;;;;-1.10;99.90;;;;;;5094065;28;19912;-73
2022/01/21 04:34:18;;;;;;;;;;;-1.00;99.90;;;;;;5091958;28;19912;-73
2022/01/21 04:36:44;;;;;;;;;;;-0.90;99.90;;;;;;5090775;28;19908;-73
2022/01/21 04:39:16;;;;;;;;;;;-1.00;99.90;;;;;;5090942;28;19915;-72
2022/01/21 04:47:18;;;;;;;;;;;-0.80;99.90;;;;;;5090709;28;20045;-73
2022/01/21 04:49:45;;;;;;;;;;;-0.80;99.90;;;;;;5091844;28;20261;-73
2022/01/21 04:52:10;;;;;;;;;;;-0.70;99.90;;;;;;5093691;28;20006;-73
2022/01/21 04:54:36;;;;;;;;;;;-0.70;99.90;;;;;;5093161;28;20398;-73
2022/01/21 04:57:02;;;;;;;;;;;-0.80;99.90;;;;;;5093802;28;19951;-72
2022/01/21 04:59:28;;;;;;;;;;;-0.80;99.90;;;;;;5093629;28;19998;-72
2022/01/21 05:01:54;;;;;;;;;;;-0.80;99.90;;;;;;5092691;28;20007;-73
2022/01/21 05:04:20;;;;;;;;;;;-0.80;99.90;;;;;;5089807;28;20007;-73
2022/01/21 05:06:47;;;;;;;;;;;-0.80;99.90;;;;;;5090279;28;19974;-73
2022/01/21 05:09:15;;;;;;;;;;;-0.90;99.90;;;;;;5090282;28;19919;-73
2022/01/21 05:11:41;;;;;;;;;;;-0.90;99.90;;;;;;5080119;28;19923;-73
2022/01/21 05:14:39;;;;;;;;;;;-0.90;99.90;;;;;;5076369;28;19916;-73
2022/01/21 05:17:03;;;;;;;;;;;-0.90;99.90;;;;;;5070132;28;20216;-72
2022/01/21 05:19:28;;;;;;;;;;;-0.90;99.90;;;;;;5085344;28;19908;-72
2022/01/21 05:21:54;;;;;;;;;;;-1.00;99.90;;;;;;5093584;28;19912;-73
2022/01/21 05:24:20;;;;;;;;;;;-1.00;99.90;;;;;;5092825;28;20478;-73
2022/01/21 05:26:54;;;;;;;;;;;-0.90;99.90;;;;;;5093057;28;19908;-73
2022/01/21 05:29:20;;;;;;;;;;;-1.00;99.90;;;;;;5092909;28;19908;-73
2022/01/21 05:31:46;;;;;;;;;;;-1.00;99.90;;;;;;5092883;28;19955;-73
2022/01/21 05:34:12;;;;;;;;;;;-1.00;99.90;;;;;;5092347;28;19908;-73
2022/01/21 05:36:40;;;;;;;;;;;-0.90;99.90;;;;;;5092836;28;19939;-72
2022/01/21 05:39:09;;;;;;;;;;;-0.90;99.90;;;;;;5093386;28;19915;-73
2022/01/21 05:41:34;;;;;;;;;;;-0.90;99.90;;;;;;5078883;28;19909;-73
2022/01/21 05:44:05;;;;;;;;;;;-0.80;99.90;;;;;;5078071;28;19916;-73
2022/01/21 05:49:15;;;;;;;;;;;-0.90;99.90;;;;;;5092963;28;19955;-73
2022/01/21 05:51:43;;;;;;;;;;;-0.80;99.90;;;;;;5092439;28;19912;-72
2022/01/21 05:54:09;;;;;;;;;;;-0.80;99.90;;;;;;5092269;28;19908;-73
2022/01/21 05:56:35;;;;;;;;;;;-0.80;99.90;;;;;;5092231;28;19908;-73
2022/01/21 05:59:00;;;;;;;;;;;-0.80;99.90;;;;;;5092446;28;19916;-73
2022/01/21 06:01:27;;;;;;;;;;;-0.80;99.90;;;;;;5092552;28;19908;-73
2022/01/21 06:03:52;;;;;;;;;;;-0.70;99.90;;;;;;5092070;28;19960;-72
2022/01/21 06:06:18;;;;;;;;;;;-0.70;99.90;;;;;;5092231;28;19999;-72
2022/01/21 06:08:43;;;;;;;;;;;-0.70;99.90;;;;;;5092219;28;19908;-72
2022/01/21 06:11:09;;;;;;;;;;;-0.70;99.90;;;;;;5083810;28;20407;-73
2022/01/21 06:13:35;;;;;;;;;;;-0.70;99.90;;;;;;5074726;28;19915;-73
2022/01/21 06:16:00;;;;;;;;;;;-0.80;99.90;;;;;;5072981;28;20315;-73
2022/01/21 06:18:26;;;;;;;;;;;-0.80;99.90;;;;;;5072209;28;19916;-72
2022/01/21 06:20:52;;;;;;;;;;;-0.90;99.90;;;;;;5072736;28;19962;-72
2022/01/21 06:23:18;;;;;;;;;;;-0.90;99.90;;;;;;5071927;28;19915;-73
2022/01/21 06:25:44;;;;;;;;;;;-0.90;99.90;;;;;;5072474;28;20003;-73
2022/01/21 06:28:09;;;;;;;;;;;-0.80;99.90;;;;;;5072442;28;19908;-73
2022/01/21 06:30:35;;;;;;;;;;;-0.80;99.90;;;;;;5072458;28;19955;-73
2022/01/21 06:33:00;;;;;;;;;;;-0.90;99.90;;;;;;5071852;28;19928;-73
2022/01/21 06:35:26;;;;;;;;;;;-0.90;99.90;;;;;;5072745;28;19987;-73
2022/01/21 06:37:51;;;;;;;;;;;-0.90;99.90;;;;;;5072532;28;20305;-73
2022/01/21 06:40:20;;;;;;;;;;;-1.00;99.90;;;;;;5076896;28;19908;-73
2022/01/21 06:42:51;;;;;;;;;;;-1.00;99.90;;;;;;5085891;28;19908;-73
2022/01/21 06:45:17;;;;;;;;;;;-0.90;99.90;;;;;;5071614;28;20418;-73
2022/01/21 06:47:43;;;;;;;;;;;-1.00;99.90;;;;;;5072208;28;20297;-72
2022/01/21 06:50:09;;;;;;;;;;;-1.00;99.90;;;;;;5079791;28;19908;-72
2022/01/21 06:52:34;;;;;;;;;;;-1.00;99.90;;;;;;5091634;28;20316;-73
2022/01/21 06:55:00;;;;;;;;;;;-0.90;99.90;;;;;;5090870;28;19912;-73
2022/01/21 06:57:26;;;;;;;;;;;-1.00;99.90;;;;;;5088593;28;19908;-73
2022/01/21 06:59:52;;;;;;;;;;;-1.00;99.90;;;;;;5074660;28;20006;-73
2022/01/21 07:02:19;;;;;;;;;;;-1.00;99.90;;;;;;5071284;28;20002;-73
2022/01/21 07:04:45;;;;;;;;;;;-0.90;99.90;;;;;;5071892;28;19908;-73
2022/01/21 07:07:10;;;;;;;;;;;-1.00;99.90;;;;;;5072698;28;19909;-73
2022/01/21 07:09:36;;;;;;;;;;;-1.00;99.90;;;;;;5072249;28;19908;-73
2022/01/21 07:12:02;;;;;;;;;;;-1.00;99.90;;;;;;5077533;28;19978;-73
2022/01/21 07:14:27;;;;;;;;;;;-1.00;99.90;;;;;;5076559;28;20377;-72
2022/01/21 07:16:53;;;;;;;;;;;-0.90;99.90;;;;;;5071829;28;20397;-73
2022/01/21 07:19:18;;;;;;;;;;;-0.90;99.90;;;;;;5072072;28;20501;-73
2022/01/21 07:21:44;;;;;;;;;;;-0.90;99.90;;;;;;5071871;28;19909;-72
2022/01/21 07:24:09;;;;;;;;;;;-0.90;99.90;;;;;;5071305;28;20383;-73
2022/01/21 07:26:35;;;;;;;;;;;-0.80;99.90;;;;;;5071538;28;19916;-73
2022/01/21 07:29:01;;;;;;;;;;;-0.80;99.90;;;;;;5070394;28;20388;-73
2022/01/21 07:31:26;;;;;;;;;;;-0.80;99.90;;;;;;5071432;28;19998;-73
2022/01/21 07:33:52;;;;;;;;;;;-0.80;99.90;;;;;;5071228;28;20313;-73
2022/01/21 07:36:17;;;;;;;;;;;-0.70;99.90;;;;;;5071506;28;19909;-73
2022/01/21 07:38:43;;;;;;;;;;;-0.70;99.90;;;;;;5071502;28;19915;-73
2022/01/21 07:41:08;;;;;;;;;;;-0.70;99.90;;;;;;5077951;28;19915;-73
2022/01/21 07:43:34;;;;;;;;;;;-0.70;99.90;;;;;;5074445;28;19955;-73
2022/01/21 07:45:59;;;;;;;;;;;-0.70;99.90;;;;;;5071380;28;19995;-73
2022/01/21 07:48:25;;;;;;;;;;;-0.70;99.90;;;;;;5071374;28;19930;-73
2022/01/21 07:50:51;;;;;;;;;;;-0.70;99.90;;;;;;5071421;28;19919;-73
2022/01/21 07:53:16;;;;;;;;;;;-0.70;99.90;;;;;;5069644;28;19909;-72
2022/01/21 07:55:44;;;;;;;;;;;-0.70;99.90;;;;;;5088132;28;19908;-73
2022/01/21 07:58:10;;;;;;;;;;;-0.70;99.90;;;;;;5077902;28;19912;-73
2022/01/21 08:00:36;;;;;;;;;;;-0.60;99.90;;;;;;5080574;28;19908;-73
2022/01/21 08:03:02;;;;;;;;;;;-0.70;99.90;;;;;;5082121;28;19908;-73
2022/01/21 08:05:31;;;;;;;;;;;-0.70;99.90;;;;;;5075126;28;19909;-73
2022/01/21 08:07:57;;;;;;;;;;;-0.60;99.90;;;;;;5075427;28;19920;-72
2022/01/21 08:10:22;;;;;;;;;;;-0.50;99.90;;;;;;5080583;28;19912;-73
2022/01/21 08:12:48;;;;;;;;;;;-0.50;99.90;;;;;;5102859;28;19919;-73
2022/01/21 08:15:13;;;;;;;;;;;-0.40;99.90;;;;;;5077755;28;19916;-73
2022/01/21 08:17:39;;;;;;;;;;;-0.40;99.90;;;;;;5075252;28;19916;-72
2022/01/21 08:20:05;;;;;;;;;;;-0.40;99.90;;;;;;5075008;28;19909;-72
2022/01/21 08:22:30;;;;;;;;;;;-0.30;99.90;;;;;;5074720;28;19913;-73
2022/01/21 08:24:55;;;;;;;;;;;-0.30;99.90;;;;;;5079422;28;19915;-72
2022/01/21 08:27:22;;;;;;;;;;;-0.30;99.90;;;;;;5081727;28;19909;-73
2022/01/21 08:29:47;;;;;;;;;;;-0.20;99.90;;;;;;5074412;28;19916;-73
2022/01/21 08:32:13;;;;;;;;;;;0.00;99.90;;;;;;5071563;28;19921;-73
2022/01/21 08:34:39;;;;;;;;;;;0.10;99.90;;;;;;5071246;28;19912;-73
2022/01/21 08:37:04;;;;;;;;;;;0.20;99.90;;;;;;5077199;28;19947;-72
2022/01/21 08:39:30;;;;;;;;;;;0.30;99.90;;;;;;5091086;28;19918;-73
2022/01/21 08:41:55;;;;;;;;;;;0.50;99.90;;;;;;5082359;28;19923;-73
2022/01/21 08:44:21;;;;;;;;;;;0.50;99.90;;;;;;5079957;28;19934;-73
2022/01/21 08:46:46;;;;;;;;;;;0.90;99.90;;;;;;5074502;28;20071;-73
2022/01/21 08:49:12;;;;;;;;;;;1.10;99.90;;;;;;5074639;28;19970;-71
2022/01/21 08:51:53;;;;;;;;;;;0.80;99.90;;;;;;5074062;28;19912;-73
2022/01/21 08:54:19;;;;;;;;;;;0.80;99.90;;;;;;5075434;28;20482;-73
2022/01/21 08:56:45;;;;;;;;;;;0.50;99.90;;;;;;5085523;28;20099;-73
2022/01/21 08:59:11;;;;;;;;;;;0.30;99.90;;;;;;5077210;28;20830;-73
2022/01/21 09:01:36;;;;;;;;;;;0.30;99.90;;;;;;5082216;28;20015;-71
2022/01/21 09:04:02;;;;;;;;;;;0.40;99.90;;;;;;5080601;28;19944;-71
2022/01/21 09:06:29;;;;;;;;;;;0.30;99.90;;;;;;5074055;28;19905;-72
2022/01/21 09:08:56;;;;;;;;;;;0.40;99.90;;;;;;5073026;28;20349;-72
2022/01/21 09:11:21;;;;;;;;;;;0.50;99.90;;;;;;5081619;28;19918;-71
2022/01/21 09:13:47;;;;;;;;;;;0.20;99.90;;;;;;5077708;28;19987;-72
2022/01/21 09:16:13;;;;;;;;;;;0.40;99.90;;;;;;5074798;28;19916;-71
2022/01/21 09:18:53;;;;;;;;;;;0.50;99.90;;;;;;5079154;28;19909;-71
2022/01/21 09:21:20;;;;;;;;;;;0.50;99.90;;;;;;5074281;28;19935;-72
2022/01/21 09:23:48;;;;;;;;;;;0.40;99.90;;;;;;5079631;28;19916;-72
2022/01/21 09:26:15;;;;;;;;;;;0.30;99.90;;;;;;5073751;28;20436;-72
2022/01/21 09:28:40;;;;;;;;;;;0.30;99.90;;;;;;5078142;28;19991;-72
2022/01/21 09:31:06;;;;;;;;;;;0.30;99.90;;;;;;5073744;28;20020;-72
2022/01/21 09:33:31;;;;;;;;;;;0.30;99.90;;;;;;5073640;28;19909;-72
2022/01/21 09:35:57;;;;;;;;;;;0.20;99.90;;;;;;5073310;28;19908;-72
2022/01/21 09:38:24;;;;;;;;;;;0.30;99.90;;;;;;5097843;28;19911;-71
2022/01/21 09:40:50;;;;;;;;;;;0.40;99.90;;;;;;5086447;28;19908;-72
2022/01/21 09:43:16;;;;;;;;;;;0.50;99.90;;;;;;5088030;28;19915;-72
2022/01/21 09:45:45;;;;;;;;;;;0.70;99.90;;;;;;5073601;28;20287;-73
2022/01/21 09:48:12;;;;;;;;;;;0.90;99.90;;;;;;5073501;28;19909;-73
2022/01/21 09:50:38;;;;;;;;;;;1.10;99.90;;;;;;5073291;28;19916;-73
2022/01/21 09:53:05;;;;;;;;;;;1.10;99.90;;;;;;5072853;28;19995;-73
2022/01/21 09:55:31;;;;;;;;;;;1.30;99.90;;;;;;5079616;28;20396;-71
2022/01/21 09:57:57;;;;;;;;;;;1.40;99.90;;;;;;5081210;28;19908;-73
2022/01/21 10:00:25;;;;;;;;;;;1.40;99.90;;;;;;5073786;28;20392;-73
2022/01/21 10:02:51;;;;;;;;;;;1.10;99.90;;;;;;5072895;28;20361;-73
2022/01/21 10:05:17;;;;;;;;;;;1.40;99.90;;;;;;5072595;28;19908;-72
2022/01/21 10:07:47;;;;;;;;;;;1.30;99.90;;;;;;5072877;28;19981;-72
2022/01/21 10:10:13;;;;;;;;;;;1.20;99.90;;;;;;5073967;28;20332;-73
2022/01/21 10:12:39;;;;;;;;;;;1.40;99.90;;;;;;5079581;28;19913;-73
2022/01/21 10:15:07;;;;;;;;;;;1.90;99.90;;;;;;5077877;28;20270;-73
2022/01/21 10:17:33;;;;;;;;;;;2.00;99.90;;;;;;5072706;28;19916;-72
2022/01/21 10:20:17;;;;;;;;;;;1.90;99.90;;;;;;5072323;28;20285;-73
2022/01/21 10:22:57;;;;;;;;;;;2.00;99.90;;;;;;5072853;28;19916;-73
2022/01/21 10:25:25;;;;;;;;;;;2.10;99.90;;;;;;5071478;28;20203;-72
2022/01/21 10:27:50;;;;;;;;;;;1.70;99.90;;;;;;5072794;28;19916;-72
2022/01/21 10:30:20;;;;;;;;;;;1.80;99.90;;;;;;5073344;28;19908;-72
2022/01/21 10:32:46;;;;;;;;;;;1.50;99.90;;;;;;5073531;28;19913;-73
2022/01/21 10:35:19;;;;;;;;;;;1.70;99.90;;;;;;5073172;28;19916;-73
2022/01/21 10:37:44;;;;;;;;;;;1.70;99.90;;;;;;5077229;28;19956;-72
2022/01/21 10:40:10;;;;;;;;;;;1.70;99.90;;;;;;5075002;28;19951;-73
2022/01/21 10:42:36;;;;;;;;;;;1.60;99.90;;;;;;5082681;28;20469;-73
2022/01/21 10:45:03;;;;;;;;;;;1.90;99.90;;;;;;5073454;28;19995;-73
2022/01/21 10:47:30;;;;;;;;;;;2.00;99.90;;;;;;5071807;28;20284;-72
2022/01/21 10:49:57;;;;;;;;;;;1.70;99.90;;;;;;5072674;28;20297;-73
2022/01/21 10:52:33;;;;;;;;;;;2.10;99.90;;;;;;5072285;28;19951;-73
2022/01/21 10:54:59;;;;;;;;;;;2.40;99.90;;;;;;5074523;28;20420;-72
2022/01/21 10:57:26;;;;;;;;;;;2.50;99.90;;;;;;5077924;28;19952;-73
2022/01/21 11:00:00;;;;;;;;;;;2.20;99.90;;;;;;5073532;28;19908;-73
2022/01/21 11:02:34;;;;;;;;;;;2.40;99.90;;;;;;5076519;28;19999;-73
2022/01/21 11:05:04;;;;;;;;;;;2.60;99.90;;;;;;5082796;28;19915;-73
2022/01/21 11:07:49;;;;;;;;;;;2.80;99.90;;;;;;5079718;28;19992;-73
2022/01/21 11:10:36;;;;;;;;;;;3.10;99.90;;;;;;5087473;28;20381;-73
2022/01/21 11:13:10;;;;;;;;;;;2.80;99.90;;;;;;5088362;28;19912;-73
2022/01/21 11:15:39;;;;;;;;;;;2.70;99.90;;;;;;5072029;28;19923;-73
2022/01/21 11:18:07;;;;;;;;;;;3.70;99.90;;;;;;5072019;28;19970;-73
2022/01/21 11:20:35;;;;;;;;;;;3.60;99.90;;;;;;5072125;28;19909;-73
2022/01/21 11:23:01;;;;;;;;;;;3.00;99.90;;;;;;5072979;28;19908;-73
2022/01/21 11:25:41;;;;;;;;;;;3.00;99.90;;;;;;5072014;28;20381;-73
2022/01/21 11:28:07;;;;;;;;;;;3.00;99.90;;;;;;5072005;28;19908;-73
2022/01/21 11:30:33;;;;;;;;;;;2.70;99.90;;;;;;5077467;28;19920;-73
2022/01/21 11:32:58;;;;;;;;;;;2.40;99.90;;;;;;5071731;28;19951;-73
2022/01/21 11:35:25;;;;;;;;;;;2.30;99.90;;;;;;5071683;28;19954;-73
2022/01/21 11:37:51;;;;;;;;;;;2.50;99.90;;;;;;5076195;28;20273;-73
2022/01/21 11:40:16;;;;;;;;;;;2.50;99.90;;;;;;5078853;28;19909;-73
2022/01/21 11:42:42;;;;;;;;;;;2.50;99.90;;;;;;5079013;28;19982;-73
2022/01/21 11:45:23;;;;;;;;;;;2.40;99.90;;;;;;5071579;28;19909;-73
2022/01/21 11:48:11;;;;;;;;;;;2.50;99.90;;;;;;5073757;28;19920;-73
2022/01/21 11:50:36;;;;;;;;;;;2.70;99.90;;;;;;5072549;28;19958;-72
2022/01/21 11:53:01;;;;;;;;;;;2.50;99.90;;;;;;5071010;28;20407;-73
2022/01/21 11:55:34;;;;;;;;;;;2.50;99.90;;;;;;5072961;28;19908;-72
2022/01/21 11:58:19;;;;;;;;;;;2.30;99.90;;;;;;5087955;28;19915;-73
2022/01/21 12:00:47;;;;;;;;;;;1.90;99.90;;;;;;5076541;28;19908;-73
2022/01/21 12:03:13;;;;;;;;;;;2.40;99.90;;;;;;5071065;28;19913;-73
2022/01/21 12:05:39;;;;;;;;;;;2.20;99.90;;;;;;5071401;28;19916;-74
2022/01/21 12:08:05;;;;;;;;;;;2.10;99.90;;;;;;5071504;28;19915;-73
2022/01/21 12:10:35;;;;;;;;;;;2.20;99.90;;;;;;5072126;28;19912;-73
2022/01/21 12:13:06;;;;;;;;;;;2.10;99.90;;;;;;5081518;28;19912;-73
2022/01/21 12:15:40;;;;;;;;;;;2.10;99.90;;;;;;5071268;28;19985;-73
2022/01/21 12:21:04;;;;;;;;;;;2.10;99.90;;;;;;5071673;28;19962;-73
2022/01/21 12:23:31;;;;;;;;;;;2.20;99.90;;;;;;5090384;28;19965;-73
2022/01/21 12:26:09;;;;;;;;;;;2.00;99.90;;;;;;5090689;28;19919;-73
2022/01/21 12:28:56;;;;;;;;;;;2.10;99.90;;;;;;5090626;28;19950;-73
2022/01/21 12:31:23;;;;;;;;;;;2.10;99.90;;;;;;5080830;28;20011;-73
2022/01/21 12:33:56;;;;;;;;;;;2.30;99.90;;;;;;5090781;28;19912;-73
2022/01/21 12:36:28;;;;;;;;;;;2.30;99.90;;;;;;5089010;28;19908;-73
2022/01/21 12:41:22;;;;;;;;;;;2.60;99.90;;;;;;5080061;28;19915;-73
2022/01/21 12:43:48;;;;;;;;;;;2.40;99.90;;;;;;5086338;28;19916;-73
2022/01/21 12:46:15;;;;;;;;;;;2.60;99.90;;;;;;5074947;28;19908;-73
2022/01/21 12:48:44;;;;;;;;;;;2.40;99.40;;;;;;5075264;28;19908;-74
2022/01/21 12:56:44;;;;;;;;;;;2.50;99.90;;;;;;5084961;28;20050;-73
2022/01/21 12:59:28;;;;;;;;;;;2.50;99.90;;;;;;5080403;28;19916;-74
2022/01/21 13:01:56;;;;;;;;;;;2.70;99.90;;;;;;5086031;28;19908;-74
2022/01/21 13:04:33;;;;;;;;;;;2.50;99.90;;;;;;5076792;28;19919;-73
2022/01/21 13:07:05;;;;;;;;;;;2.50;99.90;;;;;;5087987;28;20285;-73
2022/01/21 13:09:42;;;;;;;;;;;2.30;99.90;;;;;;5094446;28;19919;-73
2022/01/21 13:12:12;;;;;;;;;;;2.30;99.90;;;;;;5085295;28;20385;-73
2022/01/21 13:14:43;;;;;;;;;;;1.90;99.90;;;;;;5075033;28;19977;-73
2022/01/21 13:17:10;;;;;;;;;;;1.90;99.90;;;;;;5074484;28;19997;-73
2022/01/21 13:19:43;;;;;;;;;;;2.10;99.90;;;;;;5074218;28;19916;-73
2022/01/21 13:22:20;;;;;;;;;;;2.10;99.90;;;;;;5074698;28;20366;-73
2022/01/21 13:24:59;;;;;;;;;;;1.90;99.90;;;;;;5073980;28;19908;-73
2022/01/21 13:27:27;;;;;;;;;;;2.00;99.90;;;;;;5087359;28;19912;-73
2022/01/21 13:30:13;;;;;;;;;;;2.00;99.90;;;;;;5093468;28;19919;-73
2022/01/21 13:32:39;;;;;;;;;;;1.90;99.90;;;;;;5093368;28;19923;-74
2022/01/21 13:35:06;;;;;;;;;;;1.80;99.90;;;;;;5091763;28;19913;-73
2022/01/21 13:37:32;;;;;;;;;;;1.80;99.90;;;;;;5093308;28;19914;-73
2022/01/21 13:39:57;;;;;;;;;;;1.70;99.90;;;;;;5081910;28;19912;-73
2022/01/21 13:42:25;;;;;;;;;;;1.80;99.90;;;;;;5090731;28;20387;-74
2022/01/21 13:44:55;;;;;;;;;;;1.80;99.90;;;;;;5079468;28;19916;-74
2022/01/21 13:47:48;;;;;;;;;;;1.80;99.90;;;;;;5074052;28;20293;-73
2022/01/21 13:50:17;;;;;;;;;;;1.80;99.90;;;;;;5071451;28;20312;-73
2022/01/21 13:52:44;;;;;;;;;;;1.70;99.90;;;;;;5073159;28;19916;-73
2022/01/21 13:55:12;;;;;;;;;;;1.60;99.90;;;;;;5084255;28;19908;-73
2022/01/21 13:57:44;;;;;;;;;;;1.60;99.90;;;;;;5083795;28;19952;-74
2022/01/21 14:00:10;;;;;;;;;;;1.80;99.90;;;;;;5084310;28;19955;-73
2022/01/21 14:02:36;;;;;;;;;;;1.60;99.90;;;;;;5076450;28;19909;-73
2022/01/21 14:05:03;;;;;;;;;;;1.80;99.90;;;;;;5072598;28;19954;-71
2022/01/21 14:07:30;;;;;;;;;;;1.90;99.90;;;;;;5072915;28;19912;-73
2022/01/21 14:09:56;;;;;;;;;;;1.80;99.90;;;;;;5091351;28;19908;-72
2022/01/21 14:12:22;;;;;;;;;;;1.80;99.90;;;;;;5074919;28;20297;-73
2022/01/21 14:14:48;;;;;;;;;;;1.70;99.90;;;;;;5077918;28;19928;-72
2022/01/21 14:17:14;;;;;;;;;;;1.70;99.90;;;;;;5084841;28;19908;-72
2022/01/21 14:19:40;;;;;;;;;;;1.80;99.90;;;;;;5092162;28;19908;-73
2022/01/21 14:22:10;;;;;;;;;;;1.80;99.90;;;;;;5092113;28;19970;-72
2022/01/21 14:24:40;;;;;;;;;;;1.70;99.90;;;;;;5091547;28;19969;-72
2022/01/21 14:27:05;;;;;;;;;;;1.30;99.90;;;;;;5091852;28;19913;-72
2022/01/21 14:29:35;;;;;;;;;;;0.80;99.90;;;;;;5091862;28;19908;-72
2022/01/21 14:32:20;;;;;;;;;;;0.80;99.90;;;;;;5091618;28;19912;-72
2022/01/21 14:34:46;;;;;;;;;;;0.90;99.90;;;;;;5090729;28;19911;-72
2022/01/21 14:37:13;;;;;;;;;;;1.10;99.90;;;;;;5085029;28;19923;-72
2022/01/21 14:39:40;;;;;;;;;;;1.20;99.90;;;;;;5073841;28;19909;-72
2022/01/21 14:42:06;;;;;;;;;;;1.20;99.90;;;;;;5077041;28;19908;-72
2022/01/21 14:44:52;;;;;;;;;;;1.30;99.90;;;;;;5072570;28;20329;-72
2022/01/21 14:47:19;;;;;;;;;;;1.30;99.90;;;;;;5072027;28;19949;-72
2022/01/21 14:49:46;;;;;;;;;;;1.30;99.90;;;;;;5072079;28;19908;-72
2022/01/21 14:54:50;;;;;;;;;;;1.30;99.90;;;;;;5073924;28;19908;-72
2022/01/21 14:57:16;;;;;;;;;;;1.30;99.90;;;;;;5073793;28;20354;-72
2022/01/21 14:59:52;;;;;;;;;;;1.30;99.90;;;;;;5072855;28;19915;-72
2022/01/21 15:02:25;;;;;;;;;;;1.30;99.90;;;;;;5082621;28;20433;-72
2022/01/21 15:04:54;;;;;;;;;;;1.30;99.90;;;;;;5082840;28;19909;-72
2022/01/21 15:07:26;;;;;;;;;;;1.40;99.90;;;;;;5071660;28;20362;-72
2022/01/21 15:09:54;;;;;;;;;;;1.30;99.90;;;;;;5072704;28;19908;-72
2022/01/21 15:15:32;;;;;;;;;;;1.30;99.90;;;;;;5071220;28;19999;-72
2022/01/21 15:17:57;;;;;;;;;;;1.30;99.90;;;;;;5084360;28;19908;-72
2022/01/21 15:20:24;;;;;;;;;;;1.10;99.90;;;;;;5090991;28;20002;-72
2022/01/21 15:22:49;;;;;;;;;;;1.10;99.90;;;;;;5090398;28;19908;-73
2022/01/21 15:25:15;;;;;;;;;;;1.10;99.90;;;;;;5091023;28;19915;-72
2022/01/21 15:27:41;;;;;;;;;;;1.10;99.90;;;;;;5090920;28;20372;-72